首页
METAR-TAF:

METAR-TAF

机场 :

长沙黄花国际机场

长沙, 中华人民共和国

纬度: 28-11N, 经度: 113-13E, 海拔: 66米

当前天气观测

该预报发布于21分钟前的05:00 UTC
风速4节,风向北转东北
温度 15°C
湿度 94%
气压 1017 hPa
能見度: 5000
少量云层高于400英尺
多云层高于1200英尺
阴天层高于4000英尺
小雨, 轻雾

METAR: ZGHA 140500Z 03002MPS 5000 -RA BR FEW004 BKN012 OVC040 15/14 Q1017 BECMG TL0650 BKN009 OVC040

时间: 13:21 (05:21 UTC)

预报

该预报发布于10小时和15分钟前的19:06 UTC
预报有效从14日的 00点(UTC)到 14日的 24点(UTC)
风速8节,风向
能見度: 2500
散云层高于700英尺
多云层高于1100英尺
阴天层高于5000英尺
小雨, 轻雾
成为
从 14日的 01点(UTC)到 14日的 02点(UTC)
能見度: 4000

TAF: ZGHA 131906Z 1400/1424 35004MPS 2500 -RA BR SCT007 BKN011 OVC050 TX15/1407Z TN13/1422Z BECMG 1401/1402 4000

超过4000个机场的气象观测和天气预报(METAR&TAF报告)。

可查询的气象台以黄色和红色小点在地图上表示。

将鼠标移到小点上方,可查看气象台名称。

然后点击查看天气观测和预报。

如需切换地图:点击带黑十字的绿色按钮放大地图;点击带横线的绿色按钮缩小地图;或者点击绿色箭头查看邻近地区的地图。


METAR-TAF: